Time;durP1;ratioP1;P1;durP2;ratioP2;P2;SDS_P1;SDS_P2;PMS_P1;PMS_P2;Temp;Humidity;BMP_temperature;BMP_pressure;BME280_temperature;BME280_humidity;BME280_pressure;Samples;Min_cycle;Max_cycle;Signal;HPM_P1;HPM_P2
2022/07/09 00:01:17;;;;;;;16.40;8.63;;;17.40;99.90;;;;;;5090504;28;20044;-85
2022/07/09 00:03:42;;;;;;;17.50;7.80;;;17.30;99.90;;;;;;5073813;28;20040;-85
2022/07/09 00:06:08;;;;;;;16.60;7.80;;;17.30;99.90;;;;;;5091498;28;20075;-85
2022/07/09 00:08:34;;;;;;;12.98;8.23;;;17.30;99.90;;;;;;5090809;28;20471;-85
2022/07/09 00:10:59;;;;;;;14.15;7.93;;;17.20;99.90;;;;;;5073672;28;20046;-84
2022/07/09 00:13:25;;;;;;;16.02;8.55;;;17.20;99.90;;;;;;5074015;28;20079;-85
2022/07/09 00:15:52;;;;;;;15.95;8.40;;;17.10;99.90;;;;;;5090209;28;20477;-84
2022/07/09 00:18:18;;;;;;;13.40;6.22;;;17.10;99.90;;;;;;5089970;28;20050;-84
2022/07/09 00:20:43;;;;;;;16.25;9.00;;;17.00;99.90;;;;;;5072501;28;20119;-84
2022/07/09 00:23:09;;;;;;;16.50;10.02;;;17.00;99.90;;;;;;5090610;28;20047;-85
2022/07/09 00:25:35;;;;;;;14.52;8.65;;;17.00;99.90;;;;;;5090567;28;20501;-85
2022/07/09 00:28:00;;;;;;;17.63;9.45;;;17.00;99.90;;;;;;5090802;28;20032;-85
2022/07/09 00:30:26;;;;;;;15.98;9.52;;;17.00;99.90;;;;;;5090051;28;20036;-85
2022/07/09 00:32:52;;;;;;;13.88;8.85;;;17.00;99.90;;;;;;5089994;28;20032;-85
2022/07/09 00:35:17;;;;;;;17.00;9.10;;;17.00;99.90;;;;;;5090710;28;20042;-85
2022/07/09 00:37:43;;;;;;;16.83;9.48;;;16.90;99.90;;;;;;5090193;28;20455;-85
2022/07/09 00:40:09;;;;;;;17.33;9.40;;;16.90;99.90;;;;;;5089132;28;20032;-85
2022/07/09 00:42:35;;;;;;;17.52;10.18;;;16.90;99.90;;;;;;5090430;28;20043;-84
2022/07/09 00:45:00;;;;;;;18.67;9.77;;;16.90;99.90;;;;;;5072686;28;20409;-85
2022/07/09 00:47:26;;;;;;;16.35;9.90;;;16.90;99.90;;;;;;5090528;28;20043;-84
2022/07/09 00:49:52;;;;;;;15.18;9.60;;;16.80;99.90;;;;;;5072630;28;20134;-84
2022/07/09 00:52:18;;;;;;;15.07;8.20;;;16.90;99.90;;;;;;5089732;28;20421;-85
2022/07/09 00:54:45;;;;;;;17.98;10.10;;;16.90;99.90;;;;;;5090329;28;20044;-84
2022/07/09 00:57:11;;;;;;;17.50;9.38;;;16.80;99.90;;;;;;5088884;28;20098;-83
2022/07/09 00:59:38;;;;;;;15.00;8.82;;;16.90;99.90;;;;;;5089493;28;20040;-85
2022/07/09 01:02:08;;;;;;;16.90;6.88;;;16.90;99.90;;;;;;5089253;28;20047;-85
2022/07/09 01:04:35;;;;;;;15.77;8.68;;;16.80;99.90;;;;;;5089581;28;20114;-84
2022/07/09 01:07:01;;;;;;;16.33;8.48;;;16.80;99.90;;;;;;5090498;28;20055;-84
2022/07/09 01:09:28;;;;;;;17.50;8.68;;;16.80;99.90;;;;;;5089208;28;20036;-84
2022/07/09 01:11:54;;;;;;;16.88;8.02;;;16.90;99.90;;;;;;5089854;28;20040;-84
2022/07/09 01:14:19;;;;;;;17.65;7.97;;;16.80;99.90;;;;;;5072400;28;20043;-84
2022/07/09 01:16:45;;;;;;;15.82;7.95;;;16.90;99.90;;;;;;5089465;28;20079;-83
2022/07/09 01:19:11;;;;;;;19.95;8.27;;;16.90;99.90;;;;;;5068790;28;20040;-82
2022/07/09 01:21:36;;;;;;;17.00;8.32;;;16.90;99.90;;;;;;5085108;28;20405;-83
2022/07/09 01:24:02;;;;;;;17.88;6.95;;;16.90;99.90;;;;;;5089133;28;20404;-83
2022/07/09 01:26:28;;;;;;;19.35;8.38;;;16.90;99.90;;;;;;5089834;28;20051;-81
2022/07/09 01:28:54;;;;;;;17.90;8.35;;;16.90;99.90;;;;;;5090765;28;20078;-83
2022/07/09 01:31:20;;;;;;;17.25;8.38;;;16.90;99.90;;;;;;5089120;28;20036;-83
2022/07/09 01:33:45;;;;;;;19.25;9.55;;;16.90;99.90;;;;;;5073308;28;20040;-84
2022/07/09 01:36:11;;;;;;;18.55;8.68;;;16.90;99.90;;;;;;5072856;28;20089;-84
2022/07/09 01:38:37;;;;;;;17.73;8.95;;;16.90;99.90;;;;;;5071733;28;20420;-84
2022/07/09 01:41:03;;;;;;;23.77;7.07;;;16.90;99.90;;;;;;5089100;28;20044;-84
2022/07/09 01:43:30;;;;;;;16.52;8.68;;;16.90;99.90;;;;;;5071895;28;20051;-84
2022/07/09 01:45:56;;;;;;;17.50;7.15;;;16.90;99.90;;;;;;5089348;28;20497;-85
2022/07/09 01:48:22;;;;;;;16.60;9.27;;;16.80;99.90;;;;;;5089644;28;20117;-84
2022/07/09 01:50:48;;;;;;;14.10;6.95;;;16.80;99.90;;;;;;5088733;28;20074;-84
2022/07/09 01:53:13;;;;;;;18.30;10.15;;;16.80;99.90;;;;;;5089814;28;20051;-85
2022/07/09 01:55:39;;;;;;;18.42;10.07;;;16.80;99.90;;;;;;5072317;28;20051;-84
2022/07/09 01:58:05;;;;;;;17.55;10.35;;;16.80;99.90;;;;;;5088379;28;20048;-84
2022/07/09 02:00:31;;;;;;;16.10;10.82;;;16.80;99.90;;;;;;5088149;28;20404;-84
2022/07/09 02:02:57;;;;;;;21.98;12.52;;;16.80;99.90;;;;;;5072051;28;20035;-84
2022/07/09 02:05:23;;;;;;;18.08;11.82;;;16.80;99.90;;;;;;5091044;28;20044;-84
2022/07/09 02:07:49;;;;;;;20.38;11.63;;;16.80;99.90;;;;;;5093094;28;20044;-84
2022/07/09 02:10:15;;;;;;;15.73;11.27;;;16.80;99.90;;;;;;5076736;28;20032;-84
2022/07/09 02:12:41;;;;;;;17.05;9.30;;;16.70;99.90;;;;;;5076360;28;20035;-84
2022/07/09 02:15:08;;;;;;;20.85;12.18;;;16.70;99.90;;;;;;5075421;28;20032;-84
2022/07/09 02:17:34;;;;;;;21.00;12.52;;;16.70;99.90;;;;;;5092576;28;20516;-84
2022/07/09 02:19:59;;;;;;;21.45;11.95;;;16.70;99.90;;;;;;5073662;28;20036;-84
2022/07/09 02:22:25;;;;;;;17.73;8.98;;;16.70;99.90;;;;;;5092715;28;20412;-84
2022/07/09 02:24:51;;;;;;;20.58;12.65;;;16.60;99.90;;;;;;5092070;28;20048;-84
2022/07/09 02:27:16;;;;;;;22.10;14.43;;;16.60;99.90;;;;;;5093068;28;20082;-84
2022/07/09 02:29:42;;;;;;;21.38;10.10;;;16.70;99.90;;;;;;5076127;28;20123;-84
2022/07/09 02:32:10;;;;;;;20.77;14.00;;;16.60;99.90;;;;;;5092101;28;20036;-84
2022/07/09 02:34:36;;;;;;;21.20;13.50;;;16.60;99.90;;;;;;5093078;28;20717;-84
2022/07/09 02:37:03;;;;;;;19.60;11.07;;;16.70;99.90;;;;;;5075530;28;20500;-84
2022/07/09 02:39:29;;;;;;;20.83;13.90;;;16.60;99.90;;;;;;5072383;28;20040;-84
2022/07/09 02:41:54;;;;;;;22.40;14.57;;;16.60;99.90;;;;;;5093702;28;20043;-84
2022/07/09 02:44:20;;;;;;;17.08;10.48;;;16.60;99.90;;;;;;5091221;28;20097;-84
2022/07/09 02:46:45;;;;;;;23.85;15.27;;;16.60;99.90;;;;;;5075983;28;20181;-84
2022/07/09 02:49:11;;;;;;;18.92;14.15;;;16.60;99.90;;;;;;5075271;28;20043;-84
2022/07/09 02:51:37;;;;;;;20.65;15.10;;;16.60;99.90;;;;;;5075619;28;20490;-84
2022/07/09 02:54:03;;;;;;;21.33;14.77;;;16.60;99.90;;;;;;5075672;28;20028;-84
2022/07/09 02:56:28;;;;;;;22.52;14.82;;;16.60;99.90;;;;;;5092370;28;20036;-84
2022/07/09 02:58:54;;;;;;;20.17;14.85;;;16.60;99.90;;;;;;5090874;28;20036;-84
2022/07/09 03:01:20;;;;;;;20.67;14.77;;;16.60;99.90;;;;;;5074371;28;20036;-84
2022/07/09 03:03:46;;;;;;;17.65;10.07;;;16.60;99.90;;;;;;5091931;28;20080;-84
2022/07/09 03:06:12;;;;;;;20.52;13.80;;;16.60;99.90;;;;;;5091745;28;20048;-84
2022/07/09 03:08:38;;;;;;;18.50;13.25;;;16.60;99.90;;;;;;5075194;28;20043;-84
2022/07/09 03:11:06;;;;;;;17.92;9.40;;;16.60;99.90;;;;;;5075295;28;20036;-84
2022/07/09 03:13:32;;;;;;;17.25;12.52;;;16.50;99.90;;;;;;5091931;28;20036;-84
2022/07/09 03:15:58;;;;;;;18.30;13.35;;;16.50;99.90;;;;;;5075119;28;20528;-84
2022/07/09 03:18:24;;;;;;;18.10;9.73;;;16.50;99.90;;;;;;5090615;28;20086;-84
2022/07/09 03:20:50;;;;;;;16.65;13.35;;;16.50;99.90;;;;;;5090318;28;20446;-84
2022/07/09 03:23:16;;;;;;;14.85;8.88;;;16.50;99.90;;;;;;5091374;28;20523;-84
2022/07/09 03:25:42;;;;;;;19.40;13.68;;;16.50;99.90;;;;;;5091431;28;20039;-84
2022/07/09 03:28:09;;;;;;;15.65;10.15;;;16.60;99.90;;;;;;5091504;28;20126;-84
2022/07/09 03:30:34;;;;;;;21.25;14.00;;;16.50;99.90;;;;;;5092283;28;20047;-84
2022/07/09 03:33:00;;;;;;;17.25;9.32;;;16.60;99.90;;;;;;5091070;28;20044;-84
2022/07/09 03:35:26;;;;;;;20.45;12.95;;;16.50;99.90;;;;;;5092045;28;20032;-84
2022/07/09 03:37:51;;;;;;;18.17;12.35;;;16.50;99.90;;;;;;5090616;28;20565;-84
2022/07/09 03:40:17;;;;;;;18.63;13.13;;;16.50;99.90;;;;;;5090317;28;20036;-84
2022/07/09 03:42:42;;;;;;;19.42;13.13;;;16.60;99.90;;;;;;5091004;28;20063;-84
2022/07/09 03:45:08;;;;;;;19.85;13.40;;;16.60;99.90;;;;;;5091023;28;20039;-84
2022/07/09 03:47:34;;;;;;;21.65;9.73;;;16.60;99.90;;;;;;5091272;28;20043;-84
2022/07/09 03:49:59;;;;;;;19.52;13.27;;;16.60;99.90;;;;;;5090895;28;20094;-84
2022/07/09 03:52:25;;;;;;;17.52;9.88;;;16.60;99.90;;;;;;5091246;28;20032;-84
2022/07/09 03:54:50;;;;;;;19.08;13.48;;;16.60;99.90;;;;;;5091684;28;20054;-84
2022/07/09 03:57:16;;;;;;;19.48;9.32;;;16.60;99.90;;;;;;5090521;28;20043;-84
2022/07/09 03:59:41;;;;;;;19.67;13.07;;;16.60;99.90;;;;;;5089616;28;20038;-84
2022/07/09 04:02:07;;;;;;;18.95;10.27;;;16.60;99.90;;;;;;5090201;28;20119;-85
2022/07/09 04:04:33;;;;;;;21.35;13.40;;;16.60;99.90;;;;;;5090834;28;20032;-84
2022/07/09 04:06:58;;;;;;;16.65;9.73;;;16.60;99.90;;;;;;5090569;28;20044;-84
2022/07/09 04:09:24;;;;;;;22.98;13.90;;;16.50;99.90;;;;;;5090992;28;20043;-84
2022/07/09 04:11:49;;;;;;;17.20;9.23;;;16.50;99.90;;;;;;5090948;28;20048;-84
2022/07/09 04:14:15;;;;;;;20.38;13.50;;;16.50;99.90;;;;;;5090551;28;20035;-84
2022/07/09 04:16:41;;;;;;;20.05;13.90;;;16.50;99.90;;;;;;5090945;28;20070;-84
2022/07/09 04:19:07;;;;;;;18.90;13.05;;;16.50;99.90;;;;;;5089316;28;20523;-84
2022/07/09 04:21:33;;;;;;;18.02;10.52;;;16.50;99.90;;;;;;5089856;28;20084;-84
2022/07/09 04:23:58;;;;;;;20.92;13.63;;;16.50;99.90;;;;;;5073272;28;20076;-84
2022/07/09 04:26:24;;;;;;;18.45;13.32;;;16.50;99.90;;;;;;5090597;28;20032;-84
2022/07/09 04:28:49;;;;;;;19.63;14.10;;;16.50;99.90;;;;;;5089639;28;20545;-84
2022/07/09 04:31:16;;;;;;;16.77;9.63;;;16.50;99.90;;;;;;5090731;28;20032;-84
2022/07/09 04:33:43;;;;;;;20.65;14.10;;;16.50;99.90;;;;;;5071989;28;20028;-84
2022/07/09 04:36:08;;;;;;;20.65;13.77;;;16.50;99.90;;;;;;5091121;28;20393;-84
2022/07/09 04:38:34;;;;;;;18.13;10.10;;;16.60;99.90;;;;;;5090007;28;20553;-84
2022/07/09 04:40:59;;;;;;;21.08;14.52;;;16.60;99.90;;;;;;5072241;28;20528;-84
2022/07/09 04:43:25;;;;;;;19.25;10.45;;;16.60;99.90;;;;;;5073141;28;20043;-85
2022/07/09 04:45:50;;;;;;;21.95;14.13;;;16.60;99.90;;;;;;5072747;28;20177;-84
2022/07/09 04:48:16;;;;;;;18.33;13.20;;;16.60;99.90;;;;;;5073766;28;20040;-84
2022/07/09 04:50:41;;;;;;;21.33;13.88;;;16.60;99.90;;;;;;5073436;28;20039;-84
2022/07/09 04:53:07;;;;;;;18.45;13.15;;;16.70;99.90;;;;;;5090067;28;20043;-84
2022/07/09 04:55:32;;;;;;;16.85;10.15;;;16.70;99.90;;;;;;5073705;28;20428;-84
2022/07/09 04:57:58;;;;;;;21.48;13.85;;;16.70;99.90;;;;;;5089903;28;20027;-84
2022/07/09 05:00:24;;;;;;;21.02;13.93;;;16.70;99.90;;;;;;5088070;28;20540;-84
2022/07/09 05:02:49;;;;;;;23.10;14.27;;;16.80;99.90;;;;;;5089543;28;20032;-84
2022/07/09 05:05:15;;;;;;;17.75;9.75;;;16.80;99.90;;;;;;5089297;28;20089;-84
2022/07/09 05:07:41;;;;;;;21.05;13.90;;;16.80;99.90;;;;;;5090821;28;20055;-84
2022/07/09 05:10:08;;;;;;;22.92;13.98;;;16.80;99.90;;;;;;5072961;28;20043;-84
2022/07/09 05:12:34;;;;;;;18.98;13.95;;;16.80;99.90;;;;;;5089706;28;20044;-84
2022/07/09 05:15:00;;;;;;;18.23;13.07;;;16.90;99.90;;;;;;5089995;28;20408;-84
2022/07/09 05:17:25;;;;;;;19.70;13.30;;;17.00;99.90;;;;;;5072913;28;20063;-85
2022/07/09 05:19:51;;;;;;;16.38;9.25;;;17.00;99.90;;;;;;5088264;28;20044;-84
2022/07/09 05:22:17;;;;;;;18.10;13.32;;;17.10;99.90;;;;;;5088879;28;20088;-84
2022/07/09 05:24:42;;;;;;;20.05;12.73;;;17.10;99.90;;;;;;5089415;28;20032;-84
2022/07/09 05:27:09;;;;;;;17.13;9.93;;;17.20;99.90;;;;;;5072732;28;20485;-84
2022/07/09 05:29:36;;;;;;;17.25;12.98;;;17.20;99.90;;;;;;5072272;28;20405;-84
2022/07/09 05:32:02;;;;;;;16.58;9.30;;;17.30;99.90;;;;;;5090297;28;20046;-84
2022/07/09 05:34:28;;;;;;;21.17;12.85;;;17.20;99.90;;;;;;5087771;28;20051;-84
2022/07/09 05:36:57;;;;;;;20.08;11.98;;;17.30;99.90;;;;;;5090403;28;20374;-84
2022/07/09 05:39:23;;;;;;;21.27;12.38;;;17.30;99.90;;;;;;5089232;28;20055;-84
2022/07/09 05:41:49;;;;;;;17.30;12.38;;;17.30;99.90;;;;;;5075592;28;20040;-84
2022/07/09 05:44:15;;;;;;;17.48;11.43;;;17.40;99.90;;;;;;5093572;28;20047;-84
2022/07/09 05:46:41;;;;;;;18.50;11.85;;;17.40;99.90;;;;;;5092820;28;20040;-84
2022/07/09 05:49:07;;;;;;;17.10;9.50;;;17.50;99.90;;;;;;5093602;28;20409;-84
2022/07/09 05:51:33;;;;;;;18.85;11.27;;;17.50;99.90;;;;;;5076894;28;20028;-84
2022/07/09 05:53:59;;;;;;;18.48;11.32;;;17.50;99.90;;;;;;5093187;28;20071;-84
2022/07/09 05:56:25;;;;;;;14.75;10.65;;;17.50;99.90;;;;;;5094040;28;20505;-84
2022/07/09 05:58:52;;;;;;;14.68;8.55;;;17.60;99.90;;;;;;5092864;28;20413;-84
2022/07/09 06:01:17;;;;;;;16.77;10.82;;;17.60;99.90;;;;;;5075455;28;20043;-84
2022/07/09 06:03:43;;;;;;;15.00;10.05;;;17.60;99.90;;;;;;5075956;28;20032;-84
2022/07/09 06:06:09;;;;;;;14.52;10.20;;;17.70;99.90;;;;;;5092617;28;20602;-85
2022/07/09 06:08:35;;;;;;;15.38;9.48;;;17.70;99.90;;;;;;5093214;28;20075;-84
2022/07/09 06:11:02;;;;;;;16.13;9.35;;;17.70;99.90;;;;;;5092829;28;20036;-84
2022/07/09 06:13:27;;;;;;;14.10;8.80;;;17.80;99.90;;;;;;5092491;28;20590;-84
2022/07/09 06:15:53;;;;;;;15.40;8.85;;;17.80;99.90;;;;;;5076431;28;20064;-84
2022/07/09 06:18:19;;;;;;;15.57;8.52;;;17.80;99.90;;;;;;5093285;28;20796;-84
2022/07/09 06:20:45;;;;;;;15.45;8.35;;;17.80;99.90;;;;;;5074107;28;20042;-84
2022/07/09 06:23:12;;;;;;;12.75;7.43;;;17.90;99.90;;;;;;5075224;28;20535;-84
2022/07/09 06:25:38;;;;;;;13.00;7.78;;;17.90;99.90;;;;;;5093073;28;20123;-84
2022/07/09 06:28:04;;;;;;;13.98;8.00;;;17.90;99.90;;;;;;5075061;28;20044;-85
2022/07/09 06:30:30;;;;;;;11.18;5.72;;;17.90;99.90;;;;;;5076152;28;20036;-84
2022/07/09 06:32:56;;;;;;;12.75;7.25;;;18.00;99.90;;;;;;5075395;28;20051;-85
2022/07/09 06:35:22;;;;;;;12.57;6.70;;;18.00;99.90;;;;;;5092976;28;20042;-84
2022/07/09 06:37:47;;;;;;;12.90;7.38;;;18.10;99.90;;;;;;5076693;28;20055;-85
2022/07/09 06:40:13;;;;;;;10.88;6.63;;;18.10;99.90;;;;;;5091312;28;20024;-84
2022/07/09 06:42:39;;;;;;;13.02;6.10;;;18.20;99.90;;;;;;5074627;28;20040;-84
2022/07/09 06:45:05;;;;;;;11.50;6.25;;;18.20;99.90;;;;;;5075526;28;20043;-85
2022/07/09 06:47:30;;;;;;;9.45;6.00;;;18.20;99.90;;;;;;5090757;28;20032;-85
2022/07/09 06:49:56;;;;;;;11.18;5.80;;;18.30;99.90;;;;;;5092078;28;20040;-85
2022/07/09 06:52:22;;;;;;;9.18;5.53;;;18.20;99.90;;;;;;5093344;28;20040;-85
2022/07/09 06:54:47;;;;;;;9.77;4.63;;;18.30;99.90;;;;;;5091869;28;20116;-85
2022/07/09 06:57:13;;;;;;;12.38;5.18;;;18.20;99.90;;;;;;5087455;28;20020;-85
2022/07/09 06:59:39;;;;;;;11.40;5.25;;;18.20;99.90;;;;;;5114005;27;20523;-85
2022/07/09 07:02:05;;;;;;;10.65;4.88;;;18.20;99.90;;;;;;5092834;28;20078;-85
2022/07/09 07:04:31;;;;;;;9.77;4.35;;;18.30;99.90;;;;;;5092416;28;20076;-85
2022/07/09 07:06:56;;;;;;;9.77;5.07;;;18.30;99.90;;;;;;5091787;28;20515;-84
2022/07/09 07:09:22;;;;;;;10.63;5.00;;;18.30;99.90;;;;;;5091693;28;20089;-84
2022/07/09 07:11:50;;;;;;;9.27;5.03;;;18.30;99.90;;;;;;5092387;28;20493;-85
2022/07/09 07:14:16;;;;;;;9.70;4.70;;;18.30;99.90;;;;;;5075111;28;20032;-84
2022/07/09 07:16:42;;;;;;;8.38;4.57;;;18.30;99.90;;;;;;5091947;28;20043;-84
2022/07/09 07:19:09;;;;;;;8.57;4.13;;;18.40;99.90;;;;;;5075232;28;20055;-84
2022/07/09 07:21:36;;;;;;;10.80;4.68;;;18.40;99.90;;;;;;5091044;28;20461;-84
2022/07/09 07:24:02;;;;;;;10.63;4.43;;;18.40;99.90;;;;;;5074745;28;20057;-84
2022/07/09 07:26:28;;;;;;;10.30;4.50;;;18.50;99.90;;;;;;5074891;28;20040;-84
2022/07/09 07:28:54;;;;;;;9.88;4.22;;;18.50;99.90;;;;;;5091322;28;20047;-85
2022/07/09 07:31:19;;;;;;;9.55;4.63;;;18.60;99.90;;;;;;5075334;28;20036;-85
2022/07/09 07:33:45;;;;;;;10.00;4.78;;;18.60;99.90;;;;;;5074064;28;20039;-85
2022/07/09 07:36:11;;;;;;;9.38;4.32;;;18.70;99.90;;;;;;5091875;28;20051;-85
2022/07/09 07:38:36;;;;;;;10.05;4.65;;;18.80;99.90;;;;;;5091801;28;20040;-85
2022/07/09 07:41:02;;;;;;;9.93;4.60;;;18.80;99.90;;;;;;5073487;28;20046;-84
2022/07/09 07:43:27;;;;;;;9.35;4.22;;;18.80;99.90;;;;;;5090847;28;20075;-85
2022/07/09 07:45:53;;;;;;;9.13;4.28;;;18.80;99.90;;;;;;5090869;28;20032;-84
2022/07/09 07:48:19;;;;;;;8.50;4.15;;;18.80;99.90;;;;;;5090853;28;20037;-85
2022/07/09 07:50:44;;;;;;;9.88;3.80;;;18.80;99.90;;;;;;5096996;28;20093;-81
2022/07/09 07:53:10;;;;;;;8.48;4.20;;;18.80;99.90;;;;;;5092648;28;20043;-83
2022/07/09 07:55:35;;;;;;;8.05;3.78;;;18.90;99.90;;;;;;5093341;28;20040;-84
2022/07/09 07:58:01;;;;;;;7.85;3.42;;;18.90;99.90;;;;;;5093225;28;20035;-85
2022/07/09 08:00:27;;;;;;;8.35;4.07;;;18.90;99.90;;;;;;5079708;28;20409;-84
2022/07/09 08:02:52;;;;;;;9.52;3.72;;;18.90;99.90;;;;;;5090799;28;20035;-84
2022/07/09 08:05:18;;;;;;;8.05;3.75;;;18.90;99.90;;;;;;5075703;28;20089;-84
2022/07/09 08:07:44;;;;;;;7.60;3.80;;;18.90;99.90;;;;;;5074242;28;20040;-85
2022/07/09 08:10:09;;;;;;;9.88;4.03;;;18.90;99.90;;;;;;5091006;28;20038;-84
2022/07/09 08:12:35;;;;;;;7.90;3.47;;;19.00;99.90;;;;;;5090625;28;20550;-84
2022/07/09 08:15:01;;;;;;;10.32;4.30;;;19.00;99.90;;;;;;5090831;28;20482;-84
2022/07/09 08:17:26;;;;;;;9.57;4.13;;;19.10;99.90;;;;;;5090514;28;20039;-84
2022/07/09 08:19:52;;;;;;;10.85;4.13;;;19.10;99.90;;;;;;5073203;28;20040;-85
2022/07/09 08:22:18;;;;;;;8.68;3.40;;;19.20;99.90;;;;;;5072603;28;20055;-85
2022/07/09 08:24:43;;;;;;;9.68;3.40;;;19.20;99.90;;;;;;5073008;28;20089;-85
2022/07/09 08:27:09;;;;;;;8.18;3.40;;;19.30;99.90;;;;;;5090735;28;20390;-85
2022/07/09 08:29:35;;;;;;;7.85;3.28;;;19.30;99.90;;;;;;5090111;28;20048;-85
2022/07/09 08:32:00;;;;;;;9.63;3.78;;;19.40;99.90;;;;;;5090225;28;20040;-85
2022/07/09 08:34:26;;;;;;;7.90;3.38;;;19.50;99.90;;;;;;5073494;28;20119;-85
2022/07/09 08:36:51;;;;;;;9.55;3.20;;;19.60;99.90;;;;;;5090313;28;20445;-85
2022/07/09 08:39:17;;;;;;;8.27;2.80;;;19.60;99.90;;;;;;5090442;28;20039;-84
2022/07/09 08:41:43;;;;;;;8.05;2.95;;;19.60;99.90;;;;;;5089454;28;20513;-85
2022/07/09 08:44:12;;;;;;;8.15;3.10;;;19.70;99.90;;;;;;5089066;28;20070;-84
2022/07/09 08:46:39;;;;;;;8.88;3.15;;;19.90;99.90;;;;;;5090514;28;20043;-84
2022/07/09 08:49:06;;;;;;;6.95;2.50;;;19.90;99.90;;;;;;5072369;28;20032;-84
2022/07/09 08:51:35;;;;;;;8.75;2.58;;;20.00;99.90;;;;;;5090343;28;20047;-85
2022/07/09 08:54:01;;;;;;;9.05;2.40;;;20.10;99.90;;;;;;5090680;28;20143;-84
2022/07/09 08:56:27;;;;;;;6.53;2.40;;;20.30;99.90;;;;;;5072769;28;20036;-85
2022/07/09 08:58:53;;;;;;;6.93;2.20;;;20.40;99.90;;;;;;5090573;28;20043;-84
2022/07/09 09:01:18;;;;;;;7.93;2.30;;;20.50;99.90;;;;;;5088349;28;20600;-84
2022/07/09 09:03:45;;;;;;;6.35;2.28;;;20.60;99.90;;;;;;5072150;28;20122;-84
2022/07/09 09:06:12;;;;;;;6.55;2.17;;;20.80;99.90;;;;;;5089860;28;20040;-84
2022/07/09 09:08:44;;;;;;;7.90;2.88;;;20.90;99.90;;;;;;5089197;28;20564;-84
2022/07/09 09:11:16;;;;;;;6.82;2.83;;;21.00;99.90;;;;;;5090074;28;20101;-84
2022/07/09 09:13:47;;;;;;;6.68;2.42;;;21.00;99.90;;;;;;5090894;28;20497;-84
2022/07/09 09:16:13;;;;;;;6.93;2.20;;;21.00;99.90;;;;;;5089475;28;20036;-84
2022/07/09 09:18:45;;;;;;;5.93;2.15;;;21.00;99.90;;;;;;5090369;28;20550;-85
2022/07/09 09:21:12;;;;;;;8.07;2.10;;;21.10;99.90;;;;;;5088293;28;20082;-85
2022/07/09 09:23:45;;;;;;;7.07;2.50;;;21.10;99.90;;;;;;5089044;28;20559;-84
2022/07/09 09:26:16;;;;;;;7.10;2.17;;;21.10;99.90;;;;;;5105856;28;20047;-85
2022/07/09 09:29:02;;;;;;;6.03;1.98;;;21.10;99.90;;;;;;5072285;28;20082;-85
2022/07/09 09:31:35;;;;;;;5.75;1.83;;;21.10;99.90;;;;;;5072921;28;20051;-85
2022/07/09 09:34:13;;;;;;;4.95;1.77;;;21.10;99.90;;;;;;5089304;28;20075;-85
2022/07/09 09:36:40;;;;;;;5.80;1.85;;;21.20;99.90;;;;;;5089619;28;20039;-84
2022/07/09 09:39:19;;;;;;;5.50;1.70;;;21.30;99.90;;;;;;5089446;28;20032;-84
2022/07/09 09:41:56;;;;;;;3.33;1.65;;;21.40;99.90;;;;;;5089096;28;20512;-85
2022/07/09 09:44:26;;;;;;;4.57;1.45;;;21.40;99.90;;;;;;5089343;28;20055;-84
2022/07/09 09:46:56;;;;;;;5.93;1.60;;;21.40;99.90;;;;;;5089244;28;20044;-85
2022/07/09 09:49:22;;;;;;;4.25;1.50;;;21.50;99.90;;;;;;5089995;28;20048;-85
2022/07/09 09:51:54;;;;;;;5.50;1.60;;;21.60;99.90;;;;;;5072017;28;20433;-85
2022/07/09 09:54:21;;;;;;;4.85;1.65;;;21.50;99.90;;;;;;5069698;28;20043;-85
2022/07/09 09:56:48;;;;;;;8.05;2.00;;;21.40;99.90;;;;;;5070704;28;20044;-85
2022/07/09 09:59:14;;;;;;;6.13;2.05;;;21.30;99.90;;;;;;5099884;28;20089;-84
2022/07/09 10:01:41;;;;;;;3.90;1.63;;;21.20;99.90;;;;;;5106155;28;20497;-84
2022/07/09 10:04:08;;;;;;;5.65;1.70;;;21.10;99.90;;;;;;5088140;28;20493;-84
2022/07/09 10:06:34;;;;;;;4.03;1.58;;;21.00;99.90;;;;;;5088789;28;20048;-85
2022/07/09 10:09:02;;;;;;;4.03;1.58;;;21.00;99.90;;;;;;5088890;28;20077;-84
2022/07/09 10:11:41;;;;;;;5.82;1.65;;;21.10;99.90;;;;;;5089324;28;20032;-85
2022/07/09 10:14:14;;;;;;;5.10;1.70;;;21.20;99.90;;;;;;5072051;28;20485;-85
2022/07/09 10:16:40;;;;;;;5.20;1.60;;;21.40;99.90;;;;;;5072098;28;20028;-85
2022/07/09 10:19:09;;;;;;;4.15;1.40;;;21.50;99.90;;;;;;5072185;28;20515;-84
2022/07/09 10:21:40;;;;;;;3.72;1.30;;;21.70;99.90;;;;;;5072224;28;20051;-85
2022/07/09 10:24:08;;;;;;;5.82;1.40;;;21.90;99.90;;;;;;5088293;28;20040;-85
2022/07/09 10:26:46;;;;;;;5.40;1.52;;;22.00;99.90;;;;;;5091294;28;20069;-85
2022/07/09 10:29:22;;;;;;;6.43;1.50;;;22.20;99.90;;;;;;5092312;28;20040;-85
2022/07/09 10:31:48;;;;;;;4.55;1.38;;;22.40;99.90;;;;;;5093095;28;20036;-85
2022/07/09 10:34:30;;;;;;;5.28;1.30;;;22.40;99.90;;;;;;5093381;28;20047;-84
2022/07/09 10:37:05;;;;;;;5.47;1.30;;;22.50;99.90;;;;;;5075077;28;20082;-85
2022/07/09 10:39:32;;;;;;;5.32;1.40;;;22.50;99.90;;;;;;5092941;28;20071;-85
2022/07/09 10:42:05;;;;;;;5.50;1.48;;;22.50;99.90;;;;;;5092235;28;20074;-85
2022/07/09 10:44:36;;;;;;;7.30;1.50;;;22.50;99.90;;;;;;5091421;28;20066;-84
2022/07/09 10:47:03;;;;;;;6.53;1.50;;;22.50;99.90;;;;;;5092138;28;20123;-85
2022/07/09 10:49:29;;;;;;;8.60;1.70;;;22.60;99.90;;;;;;5074791;28;20048;-85
2022/07/09 10:51:58;;;;;;;5.15;1.33;;;22.80;99.90;;;;;;5075071;28;20043;-85
2022/07/09 10:54:24;;;;;;;7.45;1.58;;;22.80;99.90;;;;;;5091653;28;20040;-85
2022/07/09 10:56:51;;;;;;;7.95;1.60;;;22.80;99.90;;;;;;5092160;28;20040;-85
2022/07/09 10:59:20;;;;;;;8.02;1.40;;;22.80;99.90;;;;;;5092405;28;20077;-85
2022/07/09 11:01:46;;;;;;;7.28;1.52;;;22.90;99.90;;;;;;5089971;28;20118;-85
2022/07/09 11:04:12;;;;;;;6.22;1.50;;;23.00;99.90;;;;;;5078395;28;20130;-85
2022/07/09 11:06:45;;;;;;;6.40;1.42;;;23.00;99.90;;;;;;5066220;28;20043;-85
2022/07/09 11:09:15;;;;;;;8.40;1.52;;;23.00;99.90;;;;;;5091763;28;20048;-85
2022/07/09 11:11:47;;;;;;;7.55;1.50;;;23.10;99.90;;;;;;5059205;28;20037;-85
2022/07/09 11:14:13;;;;;;;5.50;1.10;;;23.00;99.90;;;;;;5098962;28;20127;-85
2022/07/09 11:16:39;;;;;;;7.38;1.48;;;23.10;99.90;;;;;;5085482;28;20047;-84
2022/07/09 11:19:19;;;;;;;6.07;1.45;;;23.10;99.90;;;;;;5080458;28;20036;-85
2022/07/09 11:21:45;;;;;;;7.18;1.58;;;23.20;99.90;;;;;;5071941;28;20514;-84
2022/07/09 11:24:19;;;;;;;6.47;1.50;;;23.30;99.90;;;;;;5065886;28;20329;-85
2022/07/09 11:26:48;;;;;;;7.00;1.50;;;23.30;99.90;;;;;;5091226;28;20032;-85
2022/07/09 11:29:17;;;;;;;6.43;1.25;;;23.40;99.90;;;;;;5090761;28;20051;-85
2022/07/09 11:31:48;;;;;;;6.85;1.52;;;23.60;99.90;;;;;;5091206;28;20085;-85
2022/07/09 11:34:14;;;;;;;6.93;1.48;;;23.60;99.90;;;;;;5092340;28;20036;-85
2022/07/09 11:36:44;;;;;;;6.35;1.30;;;23.60;99.90;;;;;;5090030;28;20036;-85
2022/07/09 11:39:20;;;;;;;5.63;1.40;;;23.50;99.90;;;;;;5091448;28;20044;-84
2022/07/09 11:41:46;;;;;;;7.72;2.10;;;23.50;99.90;;;;;;5091347;28;20442;-85
2022/07/09 11:44:26;;;;;;;6.90;1.80;;;23.50;99.90;;;;;;5091312;28;20146;-85
2022/07/09 11:47:07;;;;;;;8.15;2.53;;;23.60;99.90;;;;;;5091054;28;20528;-85
2022/07/09 11:49:41;;;;;;;8.18;2.47;;;23.70;99.90;;;;;;5084593;28;20401;-85
2022/07/09 11:52:21;;;;;;;6.80;1.48;;;23.80;99.90;;;;;;5074631;28;20035;-85
2022/07/09 11:55:05;;;;;;;8.88;1.65;;;24.00;99.90;;;;;;5091909;28;20075;-85
2022/07/09 11:57:32;;;;;;;11.15;3.05;;;24.20;99.90;;;;;;5091511;28;20555;-85
2022/07/09 11:59:58;;;;;;;14.32;3.08;;;24.30;99.90;;;;;;5073835;28;20038;-85
2022/07/09 12:02:34;;;;;;;13.10;2.70;;;24.40;99.90;;;;;;5090916;28;20040;-85
2022/07/09 12:05:01;;;;;;;7.43;1.83;;;24.60;99.90;;;;;;5089580;28;20032;-85
2022/07/09 12:07:27;;;;;;;6.35;1.85;;;24.70;99.90;;;;;;5073382;28;20490;-85
2022/07/09 12:10:02;;;;;;;8.75;1.92;;;24.80;99.90;;;;;;5090314;28;20243;-85
2022/07/09 12:12:28;;;;;;;7.88;1.90;;;24.80;99.90;;;;;;5090678;28;20040;-85
2022/07/09 12:14:56;;;;;;;7.85;1.77;;;24.80;99.90;;;;;;5074284;28;20517;-85
2022/07/09 12:17:29;;;;;;;7.30;1.77;;;24.80;99.90;;;;;;5090096;28;20048;-85
2022/07/09 12:19:56;;;;;;;10.48;2.22;;;24.90;99.90;;;;;;5074147;28;20043;-85
2022/07/09 12:22:25;;;;;;;8.23;1.40;;;24.90;99.90;;;;;;5090375;28;20100;-85
2022/07/09 12:24:54;;;;;;;7.80;2.03;;;24.80;99.90;;;;;;5072461;28;20055;-85
2022/07/09 12:27:20;;;;;;;9.40;1.65;;;24.70;98.60;;;;;;5091571;28;20171;-85
2022/07/09 12:29:46;;;;;;;7.55;1.60;;;24.70;99.50;;;;;;5072134;28;20131;-84
2022/07/09 12:32:13;;;;;;;7.60;1.70;;;24.70;99.60;;;;;;5072601;28;20036;-85
2022/07/09 12:34:38;;;;;;;6.82;1.83;;;24.70;99.30;;;;;;5092035;28;20036;-85
2022/07/09 12:37:05;;;;;;;8.48;2.03;;;24.70;99.90;;;;;;5090417;28;20063;-85